File downld02.txt from Lexington
Temp Hi Low Out Dew Wind Wind Wind Hi Hi Wind Heat THW Rain Heat Cool In In In In In In Air Wind Wind ISS Arc.
Date Time Out Temp Temp Hum Pt. Speed Dir Run Speed Dir Chill Index Index Bar Rain Rate D-D D-D Temp Hum Dew Heat EMC Density Samp Tx Recept Int.
---------------------------------------------------------------------------------------------------------------------------------------------------------------------------------------------------------------
5/05/26 12:30a 69.9 70.8 69.9 77 62.4 2.0 E 1.00 7.0 E 69.9 70.9 70.9 30.034 0.00 0.00 0.000 0.102 79.1 47 57.1 78.7 8.67 .0728 646 4 100.0 30
5/05/26 1:00a 69.1 69.9 69.0 79 62.3 1.0 ENE 0.50 7.0 E 69.1 70.4 70.4 30.030 0.00 0.00 0.000 0.085 78.7 47 56.8 78.3 8.68 .0728 648 4 100.0 30
5/05/26 1:30a 68.7 69.1 68.6 79 61.9 2.0 ENE 1.00 7.0 E 68.7 69.9 69.9 30.021 0.00 0.00 0.000 0.077 79.0 47 57.0 78.6 8.67 .0728 652 4 100.0 30
5/05/26 2:00a 68.8 68.8 68.6 80 62.4 3.0 E 1.50 9.0 E 68.8 70.1 70.1 30.020 0.00 0.00 0.000 0.079 79.1 47 57.1 78.7 8.67 .0727 650 4 100.0 30
5/05/26 2:30a 68.2 68.8 68.1 81 62.1 3.0 E 1.50 8.0 E 68.2 69.4 69.4 30.003 0.00 0.00 0.000 0.067 79.1 47 57.1 78.7 8.67 .0727 645 4 100.0 30
5/05/26 3:00a 67.5 68.2 67.5 83 62.2 2.0 E 1.00 7.0 ESE 67.5 68.7 68.7 29.995 0.00 0.00 0.000 0.052 79.1 47 57.1 78.7 8.67 .0727 646 4 100.0 30
5/05/26 3:30a 66.8 67.5 66.8 85 62.1 2.0 E 1.00 8.0 ENE 66.8 67.9 67.9 29.998 0.00 0.00 0.000 0.038 79.1 47 57.1 78.7 8.67 .0727 650 4 100.0 30
5/05/26 4:00a 66.3 66.8 66.3 86 62.0 2.0 E 1.00 6.0 E 66.3 67.4 67.4 29.985 0.00 0.00 0.000 0.027 79.0 47 57.0 78.6 8.67 .0727 653 4 100.0 30
5/05/26 4:30a 66.0 66.4 66.0 87 62.0 1.0 E 0.50 7.0 E 66.0 67.1 67.1 29.990 0.00 0.00 0.000 0.021 78.8 47 56.9 78.4 8.67 .0727 648 4 100.0 30
5/05/26 5:00a 65.7 66.1 65.7 88 62.0 1.0 E 0.50 6.0 ESE 65.7 66.8 66.8 29.985 0.00 0.00 0.000 0.015 78.7 47 56.8 78.3 8.68 .0727 649 4 100.0 30
5/05/26 5:30a 65.5 65.8 65.5 89 62.2 2.0 E 1.00 6.0 ENE 65.5 66.6 66.6 29.989 0.00 0.00 0.000 0.010 78.5 47 56.6 78.1 8.68 .0728 649 4 100.0 30
5/05/26 6:00a 65.2 65.6 65.2 89 61.9 2.0 E 1.00 4.0 ENE 65.2 66.3 66.3 29.994 0.00 0.00 0.000 0.004 78.3 47 56.4 77.9 8.68 .0728 650 4 100.0 30
5/05/26 6:30a 65.0 65.3 65.0 90 62.0 1.0 E 0.50 5.0 ENE 65.0 66.1 66.1 30.001 0.00 0.00 0.000 0.000 78.1 48 56.8 77.8 8.89 .0728 649 4 100.0 30
5/05/26 7:00a 65.0 65.1 64.9 90 62.0 2.0 E 1.00 6.0 ESE 65.0 66.1 66.1 30.008 0.00 0.00 0.000 0.000 77.9 48 56.6 77.6 8.89 .0729 646 4 100.0 30
5/05/26 7:30a 65.4 65.4 65.0 90 62.4 1.0 E 0.50 4.0 ENE 65.4 66.6 66.6 30.019 0.00 0.00 0.000 0.008 77.8 48 56.5 77.5 8.89 .0729 646 4 100.0 30
5/05/26 8:00a 67.3 67.3 65.4 87 63.3 3.0 E 1.50 8.0 E 67.3 68.7 68.7 30.032 0.00 0.00 0.000 0.048 77.7 48 56.4 77.4 8.90 .0730 651 4 100.0 30
5/05/26 8:30a 70.4 70.4 67.3 83 65.0 4.0 E 2.00 10.0 ENE 70.4 72.0 72.0 30.037 0.00 0.00 0.000 0.113 77.7 48 56.4 77.4 8.90 .0730 649 4 100.0 30
5/05/26 9:00a 73.3 73.3 70.4 78 66.0 6.0 E 3.00 14.0 E 73.3 74.9 74.9 30.029 0.00 0.00 0.000 0.173 77.9 48 56.6 77.6 8.89 .0730 647 4 100.0 30
5/05/26 9:30a 75.9 75.9 73.4 74 67.0 9.0 E 4.50 16.0 E 74.6 77.7 76.4 30.035 0.00 0.00 0.000 0.227 78.1 48 56.8 77.8 8.89 .0729 649 4 100.0 30
5/05/26 10:00a 78.7 78.7 75.9 66 66.4 6.0 E 3.00 14.0 ESE 78.7 80.4 80.4 30.037 0.00 0.00 0.000 0.285 78.3 48 57.0 78.0 8.88 .0729 649 4 100.0 30
5/05/26 10:30a 79.1 79.4 78.7 65 66.3 8.0 E 4.00 15.0 E 78.7 80.8 80.4 30.048 0.00 0.00 0.000 0.294 78.7 48 57.4 78.4 8.88 .0729 650 4 100.0 30
5/05/26 11:00a 80.0 80.5 79.1 63 66.3 6.0 E 3.00 14.0 ESE 80.0 81.8 81.8 30.054 0.00 0.00 0.000 0.313 78.5 48 57.2 78.2 8.88 .0729 648 4 100.0 30
5/05/26 11:30a 80.3 80.4 79.7 65 67.5 5.0 SE 2.50 12.0 SE 80.3 82.7 82.7 30.056 0.00 0.00 0.000 0.319 78.7 46 56.2 78.2 8.48 .0729 648 4 100.0 30
5/05/26 12:00p 82.8 82.8 80.3 61 68.0 5.0 E 2.50 13.0 ESE 82.8 85.8 85.8 30.051 0.00 0.00 0.000 0.371 78.9 47 57.0 78.5 8.67 .0729 647 4 100.0 30
5/05/26 12:30p 82.5 82.8 82.1 60 67.2 5.0 E 2.50 13.0 SSE 82.5 85.0 85.0 30.049 0.00 0.00 0.000 0.365 78.8 46 56.3 78.3 8.47 .0729 648 4 100.0 30
5/05/26 1:00p 84.6 84.6 82.5 56 67.2 4.0 SSE 2.00 12.0 ESE 84.6 87.5 87.5 30.047 0.00 0.00 0.000 0.408 78.5 46 56.0 78.0 8.48 .0729 648 4 100.0 30
5/05/26 1:30p 85.3 85.5 84.6 54 66.8 4.0 E 2.00 10.0 E 85.3 88.1 88.1 30.033 0.00 0.00 0.000 0.423 78.5 47 56.6 78.1 8.68 .0729 650 4 100.0 30
5/05/26 2:00p 86.5 86.5 84.8 50 65.7 4.0 ESE 2.00 11.0 SSE 86.5 88.8 88.8 30.024 0.00 0.00 0.000 0.448 78.8 48 57.4 78.6 8.87 .0728 650 4 100.0 30
5/05/26 2:30p 88.3 88.3 86.4 47 65.5 4.0 SSE 2.00 12.0 SSE 88.3 90.7 90.7 30.012 0.00 0.00 0.000 0.485 79.3 46 56.7 78.8 8.46 .0727 647 4 100.0 30
5/05/26 3:00p 88.3 88.6 87.9 45 64.3 3.0 SE 1.50 10.0 ENE 88.3 90.1 90.1 30.004 0.00 0.00 0.000 0.485 79.1 45 55.9 78.5 8.37 .0728 650 4 100.0 30
5/05/26 3:30p 88.8 88.8 88.2 41 62.1 2.0 SSE 1.00 11.0 E 88.8 89.5 89.5 29.995 0.00 0.00 0.000 0.496 79.0 47 57.0 78.6 8.67 .0727 648 4 100.0 30
5/05/26 4:00p 88.6 89.3 88.5 41 61.9 2.0 S 1.00 10.0 S 88.6 89.3 89.3 29.999 0.00 0.00 0.000 0.492 79.5 46 56.9 79.0 8.46 .0726 650 4 100.0 30
5/05/26 4:30p 89.8 90.5 88.5 48 67.5 3.0 WNW 1.50 13.0 W 89.8 93.6 93.6 29.990 0.00 0.00 0.000 0.517 79.5 43 55.0 78.6 8.05 .0727 650 4 100.0 30
5/05/26 5:00p 88.2 89.7 88.2 51 67.8 5.0 NW 2.50 13.0 NNW 88.2 92.0 92.0 29.985 0.00 0.00 0.000 0.483 79.2 44 55.4 78.5 8.17 .0727 646 4 100.0 30
5/05/26 5:30p 86.9 88.2 86.8 56 69.3 6.0 NW 3.00 15.0 NNW 86.9 91.5 91.5 29.992 0.00 0.00 0.000 0.456 79.4 45 56.2 78.8 8.36 .0727 646 4 100.0 30
5/05/26 6:00p 84.8 86.9 84.8 61 69.9 7.0 NW 3.50 15.0 NW 84.8 89.3 89.3 29.997 0.00 0.00 0.000 0.413 79.8 43 55.3 78.9 8.05 .0727 648 4 100.0 30
5/05/26 6:30p 83.2 84.8 83.2 64 69.8 5.0 WNW 2.50 12.0 NW 83.2 87.3 87.3 29.995 0.00 0.00 0.000 0.379 79.2 42 54.1 78.2 7.87 .0728 654 4 100.0 30
5/05/26 7:00p 81.8 83.2 81.8 67 69.8 7.0 NW 3.50 16.0 WNW 81.8 85.6 85.6 29.998 0.00 0.00 0.000 0.350 79.1 44 55.3 78.4 8.17 .0728 645 4 100.0 30
5/05/26 7:30p 79.8 81.8 79.8 69 68.7 4.0 NW 2.00 12.0 NW 79.8 82.6 82.6 29.999 0.00 0.00 0.000 0.308 79.6 43 55.1 78.7 8.05 .0727 647 4 100.0 30
5/05/26 8:00p 77.6 79.8 77.6 73 68.3 3.0 WNW 1.50 10.0 WNW 77.6 79.8 79.8 30.001 0.00 0.00 0.000 0.262 79.1 42 54.0 78.1 7.87 .0728 648 4 100.0 30
5/05/26 8:30p 76.1 77.6 76.1 77 68.4 3.0 NW 1.50 8.0 NW 76.1 78.2 78.2 30.010 0.00 0.00 0.000 0.231 78.8 46 56.3 78.3 8.47 .0728 648 4 100.0 30
5/05/26 9:00p 75.1 76.1 75.1 79 68.1 1.0 WNW 0.50 4.0 NW 75.1 77.1 77.1 30.015 0.00 0.00 0.000 0.210 78.9 45 55.8 78.3 8.37 .0728 651 4 100.0 30
5/05/26 9:30p 74.2 75.1 74.2 82 68.3 0.0 WNW 0.00 3.0 NW 74.2 76.2 76.2 30.029 0.00 0.00 0.000 0.192 79.0 44 55.2 78.3 8.17 .0729 651 4 100.0 30
5/05/26 10:00p 73.0 74.2 73.0 84 67.9 0.0 WNW 0.00 1.0 WNW 73.0 74.9 74.9 30.032 0.00 0.00 0.000 0.167 78.5 44 54.8 77.7 8.18 .0730 648 4 100.0 30
5/05/26 10:30p 72.0 73.0 72.0 87 67.9 0.0 NE 0.00 2.0 NE 72.0 73.9 73.9 30.047 0.00 0.00 0.000 0.146 78.3 46 55.8 77.8 8.48 .0730 648 4 100.0 30
5/05/26 11:00p 73.3 73.3 72.0 77 65.7 2.0 ENE 1.00 7.0 E 73.3 74.8 74.8 30.053 0.00 0.00 0.000 0.173 78.3 46 55.8 77.8 8.48 .0730 649 4 100.0 30
5/05/26 11:30p 75.5 75.6 73.3 70 65.0 5.0 E 2.50 10.0 ENE 75.5 76.9 76.9 30.063 0.00 0.00 0.000 0.219 78.8 45 55.7 78.2 8.37 .0730 648 4 100.0 30
5/06/26 12:00a 74.9 75.6 74.9 68 63.6 4.0 E 2.00 11.0 ESE 74.9 76.0 76.0 30.056 0.00 0.00 0.000 0.206 79.0 47 57.0 78.6 8.67 .0729 647 4 100.0 30
5/06/26 12:30a 73.9 74.8 73.8 69 63.1 4.0 E 2.00 9.0 E 73.9 74.9 74.9 30.059 0.00 0.00 0.000 0.185 78.8 47 56.9 78.4 8.67 .0729 648 4 100.0 30
5/06/26 1:00a 72.6 73.8 72.5 71 62.7 2.0 E 1.00 6.0 E 72.6 73.5 73.5 30.062 0.00 0.00 0.000 0.158 78.5 47 56.6 78.1 8.68 .0730 646 4 100.0 30
5/06/26 1:30a 71.5 72.5 71.5 74 62.8 2.0 E 1.00 6.0 E 71.5 72.4 72.4 30.053 0.00 0.00 0.000 0.135 79.0 47 57.0 78.6 8.67 .0728 646 4 100.0 30
5/06/26 2:00a 70.6 71.5 70.6 76 62.7 1.0 E 0.50 6.0 E 70.6 71.6 71.6 30.049 0.00 0.00 0.000 0.117 78.6 47 56.7 78.2 8.68 .0729 653 4 100.0 30
5/06/26 2:30a 69.5 70.6 69.5 78 62.3 1.0 E 0.50 4.0 E 69.5 70.7 70.7 30.044 0.00 0.00 0.000 0.094 79.0 47 57.0 78.6 8.67 .0728 649 4 100.0 30
5/06/26 3:00a 68.7 69.5 68.7 81 62.6 1.0 E 0.50 4.0 E 68.7 70.1 70.1 30.034 0.00 0.00 0.000 0.077 79.1 47 57.1 78.7 8.67 .0728 650 4 100.0 30
5/06/26 3:30a 68.3 68.7 68.3 83 62.9 1.0 ESE 0.50 3.0 E 68.3 69.7 69.7 30.027 0.00 0.00 0.000 0.069 79.2 47 57.2 78.9 8.67 .0727 648 4 100.0 30
5/06/26 4:00a 68.3 68.4 68.3 84 63.3 2.0 ESE 1.00 7.0 ESE 68.3 69.8 69.8 30.031 0.00 0.00 0.000 0.069 79.1 47 57.1 78.7 8.67 .0728 651 4 100.0 30
5/06/26 4:30a 67.8 68.3 67.8 85 63.1 1.0 E 0.50 3.0 E 67.8 69.2 69.2 30.029 0.00 0.00 0.000 0.058 79.2 47 57.2 78.9 8.67 .0727 650 4 100.0 30
5/06/26 5:00a 67.5 67.9 67.4 87 63.5 1.0 ESE 0.50 4.0 ESE 67.5 69.0 69.0 30.026 0.00 0.00 0.000 0.052 79.1 47 57.1 78.7 8.67 .0728 646 4 100.0 30
5/06/26 5:30a 67.5 67.5 67.5 87 63.5 1.0 ESE 0.50 6.0 E 67.5 69.0 69.0 30.022 0.00 0.00 0.000 0.052 79.0 47 57.0 78.6 8.67 .0728 648 4 100.0 30
5/06/26 6:00a 67.2 67.5 67.1 89 63.8 1.0 ESE 0.50 4.0 ESE 67.2 68.8 68.8 30.030 0.00 0.00 0.000 0.046 78.9 47 57.0 78.5 8.67 .0728 644 4 100.0 30
5/06/26 6:30a 67.0 67.2 67.0 89 63.6 1.0 ESE 0.50 6.0 E 67.0 68.5 68.5 30.035 0.00 0.00 0.000 0.042 78.7 47 56.8 78.3 8.68 .0729 650 4 100.0 30
5/06/26 7:00a 66.9 67.0 66.9 90 63.9 1.0 ESE 0.50 5.0 SSE 66.9 68.5 68.5 30.043 0.00 0.00 0.000 0.040 78.7 47 56.8 78.3 8.68 .0729 650 4 100.0 30
5/06/26 7:30a 67.4 67.4 66.9 91 64.7 1.0 ESE 0.50 4.0 ESE 67.4 69.1 69.1 30.052 0.00 0.00 0.000 0.050 78.5 47 56.6 78.1 8.68 .0729 649 4 100.0 30
5/06/26 8:00a 68.8 68.8 67.3 90 65.7 3.0 SE 1.50 7.0 ESE 68.8 70.8 70.8 30.058 0.00 0.00 0.000 0.079 78.4 47 56.5 78.0 8.68 .0730 647 4 100.0 30
5/06/26 8:30a 71.2 71.2 68.8 88 67.5 3.0 SE 1.50 8.0 SSE 71.2 73.2 73.2 30.062 0.00 0.00 0.000 0.129 78.5 48 57.2 78.2 8.88 .0729 650 4 100.0 30
5/06/26 9:00a 75.0 75.0 71.3 84 69.8 4.0 SE 2.00 10.0 SSE 75.0 77.4 77.4 30.068 0.00 0.00 0.000 0.208 78.6 48 57.3 78.3 8.88 .0729 649 4 100.0 30
5/06/26 9:30a 77.9 77.9 75.1 79 70.9 6.0 SSE 3.00 16.0 SE 77.9 81.0 81.0 30.076 0.00 0.00 0.000 0.269 78.8 48 57.4 78.6 8.87 .0729 649 4 100.0 30
5/06/26 10:00a 80.5 80.5 77.9 74 71.4 5.0 SE 2.50 11.0 SE 80.5 84.8 84.8 30.077 0.00 0.00 0.000 0.323 78.3 47 56.4 77.9 8.68 .0730 648 4 100.0 30